Time;durP1;ratioP1;P1;durP2;ratioP2;P2;SDS_P1;SDS_P2;PMS_P1;PMS_P2;Temp;Humidity;BMP_temperature;BMP_pressure;BME280_temperature;BME280_humidity;BME280_pressure;Samples;Min_cycle;Max_cycle;Signal;HPM_P1;HPM_P2
2023/08/31 00:00:33;;;;;;;4.47;1.35;;;12.10;99.90;;;;;;5055403;28;20032;-38
2023/08/31 00:03:00;;;;;;;7.18;1.50;;;12.00;99.90;;;;;;5053170;28;20177;-38
2023/08/31 00:05:28;;;;;;;4.45;1.42;;;12.00;99.90;;;;;;5055404;28;20112;-38
2023/08/31 00:07:54;;;;;;;6.53;1.35;;;11.90;99.90;;;;;;5053874;28;20394;-38
2023/08/31 00:10:20;;;;;;;7.03;1.35;;;11.90;99.90;;;;;;5054449;28;20553;-38
2023/08/31 00:12:45;;;;;;;3.40;1.08;;;11.80;99.90;;;;;;5051813;28;20041;-41
2023/08/31 00:15:11;;;;;;;5.57;1.10;;;11.80;99.90;;;;;;5054624;28;20040;-37
2023/08/31 00:17:37;;;;;;;3.55;1.10;;;11.70;99.90;;;;;;5054016;28;20076;-38
2023/08/31 00:20:06;;;;;;;3.55;1.02;;;11.60;99.90;;;;;;5054533;28;20040;-38
2023/08/31 00:22:32;;;;;;;5.97;1.30;;;11.50;99.90;;;;;;5050231;28;20048;-37
2023/08/31 00:24:58;;;;;;;6.78;1.20;;;11.40;99.90;;;;;;5052651;28;20051;-37
2023/08/31 00:27:24;;;;;;;3.65;1.40;;;11.30;99.90;;;;;;5055827;28;20037;-38
2023/08/31 00:29:50;;;;;;;4.45;1.10;;;11.30;99.90;;;;;;5054442;28;20585;-38
2023/08/31 00:32:18;;;;;;;3.85;1.00;;;11.20;99.90;;;;;;5054043;28;20080;-38
2023/08/31 00:34:44;;;;;;;4.68;1.30;;;11.20;99.90;;;;;;5053240;28;20681;-38
2023/08/31 00:37:10;;;;;;;3.45;0.90;;;11.10;99.90;;;;;;5053422;28;20049;-38
2023/08/31 00:39:35;;;;;;;3.58;1.00;;;11.10;99.90;;;;;;5051836;28;20072;-38
2023/08/31 00:42:01;;;;;;;4.35;1.20;;;11.00;99.90;;;;;;5056285;28;20028;-38
2023/08/31 00:44:27;;;;;;;2.47;0.90;;;11.00;99.90;;;;;;5053247;28;20434;-38
2023/08/31 00:46:52;;;;;;;2.95;1.00;;;10.90;99.90;;;;;;5047729;28;20128;-38
2023/08/31 00:49:18;;;;;;;2.58;1.02;;;10.90;99.90;;;;;;5054286;28;20067;-39
2023/08/31 00:51:50;;;;;;;4.30;1.08;;;10.80;99.90;;;;;;5051494;28;20043;-38
2023/08/31 00:54:21;;;;;;;2.97;1.08;;;10.80;99.90;;;;;;5034551;28;20056;-38
2023/08/31 00:56:51;;;;;;;2.72;1.30;;;10.70;99.90;;;;;;5052880;28;20048;-38
2023/08/31 00:59:17;;;;;;;1.40;0.88;;;10.70;99.90;;;;;;5053065;28;20036;-38
2023/08/31 01:01:58;;;;;;;2.53;1.00;;;10.70;99.90;;;;;;5050405;28;20051;-38
2023/08/31 01:05:00;;;;;;;1.77;1.05;;;10.60;99.90;;;;;;5054292;28;20177;-38
2023/08/31 01:07:26;;;;;;;3.60;1.05;;;10.60;99.90;;;;;;5048308;28;20060;-39
2023/08/31 01:10:30;;;;;;;5.10;1.05;;;10.60;99.90;;;;;;5049434;28;20821;-38
2023/08/31 01:13:11;;;;;;;3.85;1.10;;;10.50;99.90;;;;;;5009936;28;20523;-38
2023/08/31 01:15:40;;;;;;;2.85;1.25;;;10.50;99.90;;;;;;5008965;28;20601;-37
2023/08/31 01:18:09;;;;;;;2.97;1.23;;;10.50;99.90;;;;;;5011128;28;20077;-37
2023/08/31 01:20:44;;;;;;;4.05;1.63;;;10.40;99.90;;;;;;5009826;28;20374;-38
2023/08/31 01:23:18;;;;;;;4.53;1.40;;;10.50;99.90;;;;;;5008603;28;20502;-37
2023/08/31 01:25:45;;;;;;;3.45;1.23;;;10.40;99.90;;;;;;5009733;28;20056;-39
2023/08/31 01:28:11;;;;;;;3.13;1.00;;;10.40;99.90;;;;;;5011257;28;20308;-38
2023/08/31 01:30:37;;;;;;;2.60;1.30;;;10.40;99.90;;;;;;5009384;28;20049;-37
2023/08/31 01:33:03;;;;;;;2.50;1.10;;;10.40;99.90;;;;;;5013484;28;20033;-38
2023/08/31 01:35:41;;;;;;;5.78;1.63;;;10.40;99.90;;;;;;5013570;28;20037;-38
2023/08/31 01:38:08;;;;;;;5.20;1.15;;;10.40;99.90;;;;;;5014729;28;20061;-38
2023/08/31 01:40:45;;;;;;;3.22;1.38;;;10.30;99.90;;;;;;5014314;28;20052;-38
2023/08/31 01:43:11;;;;;;;4.80;1.70;;;10.40;99.90;;;;;;5015880;28;20061;-38
2023/08/31 01:45:37;;;;;;;6.88;1.38;;;10.30;99.90;;;;;;5016209;28;20060;-38
2023/08/31 01:48:04;;;;;;;4.10;1.30;;;10.40;99.90;;;;;;5050108;28;20037;-38
2023/08/31 01:50:30;;;;;;;6.50;1.30;;;10.40;99.90;;;;;;5043392;28;20079;-38
2023/08/31 01:52:56;;;;;;;2.25;1.50;;;10.30;99.90;;;;;;5056424;28;20124;-38
2023/08/31 01:55:22;;;;;;;5.57;0.98;;;10.40;99.90;;;;;;5055193;28;20101;-37
2023/08/31 01:57:48;;;;;;;5.03;1.70;;;10.40;99.90;;;;;;5054907;28;20032;-38
2023/08/31 02:00:15;;;;;;;2.90;1.50;;;10.40;99.90;;;;;;5056316;28;20052;-38
2023/08/31 02:02:41;;;;;;;4.97;1.25;;;10.40;99.90;;;;;;5052271;28;20469;-38
2023/08/31 02:05:08;;;;;;;2.97;1.15;;;10.40;99.90;;;;;;5055815;28;20325;-38
2023/08/31 02:07:33;;;;;;;2.35;1.15;;;10.40;99.90;;;;;;5057320;28;20136;-38
2023/08/31 02:09:59;;;;;;;2.67;1.00;;;10.40;99.90;;;;;;5057599;28;20542;-39
2023/08/31 02:12:25;;;;;;;1.90;1.10;;;10.40;99.90;;;;;;5058567;28;20044;-38
2023/08/31 02:14:51;;;;;;;3.10;1.50;;;10.40;99.90;;;;;;5040636;28;20410;-37
2023/08/31 02:17:16;;;;;;;3.30;1.00;;;10.40;99.90;;;;;;5059089;28;20052;-38
2023/08/31 02:19:42;;;;;;;2.80;1.10;;;10.40;99.90;;;;;;5058011;28;20041;-38
2023/08/31 02:22:08;;;;;;;4.43;1.20;;;10.40;99.90;;;;;;5054046;28;20124;-38
2023/08/31 02:24:34;;;;;;;4.13;1.20;;;10.40;99.90;;;;;;5054142;28;20040;-38
2023/08/31 02:26:59;;;;;;;3.80;1.67;;;10.40;99.90;;;;;;5057656;28;20072;-39
2023/08/31 02:29:25;;;;;;;5.00;1.05;;;10.40;99.90;;;;;;5057951;28;20459;-38
2023/08/31 02:31:51;;;;;;;3.42;1.33;;;10.40;99.90;;;;;;5057573;28;20445;-38
2023/08/31 02:34:16;;;;;;;3.22;1.60;;;10.40;99.90;;;;;;5056526;28;20106;-39
2023/08/31 02:36:42;;;;;;;2.10;1.05;;;10.40;99.90;;;;;;5057672;28;20055;-38
2023/08/31 02:39:08;;;;;;;4.78;1.85;;;10.40;99.90;;;;;;5040202;28;20046;-38
2023/08/31 02:41:34;;;;;;;4.75;1.30;;;10.40;99.90;;;;;;5057783;28;20045;-39
2023/08/31 02:44:00;;;;;;;4.70;1.40;;;10.40;99.90;;;;;;5057089;28;20059;-38
2023/08/31 02:46:25;;;;;;;5.78;1.55;;;10.40;99.90;;;;;;5045701;28;20375;-39
2023/08/31 02:48:51;;;;;;;2.72;1.10;;;10.40;99.90;;;;;;5054524;28;20048;-38
2023/08/31 02:51:16;;;;;;;4.72;1.50;;;10.40;99.90;;;;;;5057753;28;20063;-38
2023/08/31 02:53:42;;;;;;;4.93;1.40;;;10.30;99.90;;;;;;5074146;28;20044;-38
2023/08/31 02:56:08;;;;;;;6.00;1.60;;;10.40;99.90;;;;;;5067049;28;20049;-39
2023/08/31 02:58:34;;;;;;;6.05;1.75;;;10.40;99.90;;;;;;5060911;28;20115;-38
2023/08/31 03:01:16;;;;;;;4.65;1.45;;;10.40;99.90;;;;;;5076978;28;20108;-38
2023/08/31 03:03:43;;;;;;;3.85;1.80;;;10.50;99.90;;;;;;5075869;28;20470;-38
2023/08/31 03:06:09;;;;;;;3.08;1.75;;;10.60;99.90;;;;;;5049514;28;20127;-39
2023/08/31 03:08:36;;;;;;;4.18;1.75;;;10.70;99.90;;;;;;5076647;28;20046;-38
2023/08/31 03:11:03;;;;;;;6.20;1.80;;;10.80;99.90;;;;;;5093097;28;20107;-38
2023/08/31 03:13:29;;;;;;;6.60;1.95;;;10.70;99.90;;;;;;5077446;28;20119;-38
2023/08/31 03:15:56;;;;;;;6.72;1.98;;;10.80;99.90;;;;;;5076956;28;20111;-38
2023/08/31 03:18:22;;;;;;;5.88;1.70;;;10.80;99.90;;;;;;5077926;28;20090;-39
2023/08/31 03:20:48;;;;;;;6.85;1.70;;;10.90;99.90;;;;;;5076565;28;20555;-38
2023/08/31 03:23:14;;;;;;;8.48;1.67;;;10.90;99.90;;;;;;5064531;28;20052;-39
2023/08/31 03:25:40;;;;;;;7.32;1.80;;;10.90;99.90;;;;;;5063281;28;20122;-38
2023/08/31 03:28:05;;;;;;;4.20;1.83;;;10.90;99.90;;;;;;5078025;28;20044;-38
2023/08/31 03:30:31;;;;;;;7.75;1.63;;;10.90;99.90;;;;;;5062327;28;20062;-38
2023/08/31 03:32:57;;;;;;;9.05;3.17;;;11.00;99.90;;;;;;5056829;28;20486;-38
2023/08/31 03:35:26;;;;;;;6.47;2.22;;;11.00;99.90;;;;;;5054110;28;20059;-38
2023/08/31 03:37:52;;;;;;;6.32;2.10;;;10.90;99.90;;;;;;5056582;28;20049;-38
2023/08/31 03:40:19;;;;;;;6.90;2.17;;;11.00;99.90;;;;;;5070213;28;20046;-38
2023/08/31 03:42:44;;;;;;;9.20;2.45;;;11.10;99.90;;;;;;5076162;28;20097;-38
2023/08/31 03:45:11;;;;;;;6.78;2.60;;;11.00;99.90;;;;;;5059895;28;20466;-38
2023/08/31 03:47:37;;;;;;;7.13;3.10;;;11.10;99.90;;;;;;5041185;28;20048;-38
2023/08/31 03:50:04;;;;;;;6.68;3.17;;;11.00;99.90;;;;;;5055293;28;20122;-38
2023/08/31 03:52:30;;;;;;;8.85;2.78;;;11.00;99.90;;;;;;5054956;28;20131;-38
2023/08/31 03:54:55;;;;;;;7.70;3.20;;;10.90;99.90;;;;;;5055281;28;20054;-38
2023/08/31 03:57:21;;;;;;;6.63;3.55;;;10.90;99.90;;;;;;5056153;28;20117;-38
2023/08/31 03:59:47;;;;;;;5.13;3.13;;;10.90;99.90;;;;;;5055905;28;20080;-39
2023/08/31 04:02:13;;;;;;;9.32;3.92;;;10.80;99.90;;;;;;5043831;28;20036;-38
2023/08/31 04:04:38;;;;;;;8.15;4.32;;;10.80;99.90;;;;;;5053615;28;20052;-37
2023/08/31 04:07:06;;;;;;;7.32;3.35;;;10.80;99.90;;;;;;5054291;28;20147;-39
2023/08/31 04:09:31;;;;;;;9.48;3.53;;;10.70;99.90;;;;;;5054718;28;20048;-39
2023/08/31 04:11:57;;;;;;;7.50;3.97;;;10.80;99.90;;;;;;5055084;28;20485;-38
2023/08/31 04:14:23;;;;;;;6.75;3.80;;;10.80;99.90;;;;;;5055768;28;20044;-39
2023/08/31 04:16:50;;;;;;;7.78;3.40;;;10.90;99.90;;;;;;5055515;28;20064;-39
2023/08/31 04:19:17;;;;;;;8.93;3.70;;;10.80;99.90;;;;;;5055892;28;20376;-39
2023/08/31 04:21:43;;;;;;;5.28;3.50;;;10.80;99.90;;;;;;5053452;28;20131;-37
2023/08/31 04:24:09;;;;;;;9.98;3.83;;;10.80;99.90;;;;;;5050308;28;20045;-39
2023/08/31 04:26:35;;;;;;;4.07;2.65;;;10.80;99.90;;;;;;5053753;28;20055;-38
2023/08/31 04:29:03;;;;;;;7.55;3.30;;;10.70;99.90;;;;;;5056162;28;20044;-38
2023/08/31 04:31:29;;;;;;;7.32;3.00;;;10.70;99.90;;;;;;5075335;28;20433;-39
2023/08/31 04:33:54;;;;;;;7.57;3.03;;;10.70;99.90;;;;;;5074690;28;20322;-39
2023/08/31 04:36:21;;;;;;;4.60;2.92;;;10.70;99.90;;;;;;5075770;28;20176;-39
2023/08/31 04:38:48;;;;;;;7.30;2.78;;;10.70;99.90;;;;;;5075318;28;20048;-38
2023/08/31 04:41:15;;;;;;;7.72;2.88;;;10.70;99.90;;;;;;5064310;28;20044;-41
2023/08/31 04:43:40;;;;;;;4.80;2.70;;;10.70;99.90;;;;;;5075506;28;20075;-38
2023/08/31 04:46:06;;;;;;;5.63;2.53;;;10.60;99.90;;;;;;5050693;28;20407;-39
2023/08/31 04:48:32;;;;;;;6.38;2.95;;;10.70;99.90;;;;;;5049733;28;20118;-38
2023/08/31 04:50:58;;;;;;;6.28;2.38;;;10.60;99.90;;;;;;5055005;28;20051;-39
2023/08/31 04:53:25;;;;;;;9.38;2.40;;;10.70;99.90;;;;;;5055373;28;20075;-39
2023/08/31 04:55:51;;;;;;;8.43;2.25;;;10.70;99.90;;;;;;5055443;28;20060;-38
2023/08/31 04:58:16;;;;;;;6.10;1.90;;;10.70;99.90;;;;;;5056237;28;20559;-37
2023/08/31 05:00:44;;;;;;;5.28;2.03;;;10.70;99.90;;;;;;5074800;28;20044;-38
2023/08/31 05:03:10;;;;;;;6.43;2.60;;;10.70;99.90;;;;;;5075889;28;20127;-39
2023/08/31 05:05:36;;;;;;;7.43;2.50;;;10.80;99.90;;;;;;5075479;28;20285;-38
2023/08/31 05:08:03;;;;;;;4.97;1.73;;;10.80;99.90;;;;;;5078120;28;20399;-38
2023/08/31 05:10:28;;;;;;;4.43;1.83;;;10.90;99.90;;;;;;5078085;28;20109;-39
2023/08/31 05:12:54;;;;;;;6.57;2.00;;;10.90;99.90;;;;;;5077386;28;20044;-39
2023/08/31 05:15:20;;;;;;;4.53;2.30;;;10.90;99.90;;;;;;5068546;28;20075;-39
2023/08/31 05:17:46;;;;;;;4.70;2.00;;;11.00;99.90;;;;;;5078544;28;20075;-39
2023/08/31 05:20:12;;;;;;;7.47;2.20;;;11.10;99.90;;;;;;5074320;28;20040;-38
2023/08/31 05:22:38;;;;;;;5.80;1.80;;;11.10;99.90;;;;;;5052947;28;20052;-39
2023/08/31 05:25:04;;;;;;;4.28;1.63;;;11.20;99.90;;;;;;5067533;28;20040;-39
2023/08/31 05:27:30;;;;;;;4.43;1.65;;;11.30;99.90;;;;;;5077897;28;20096;-39
2023/08/31 05:29:55;;;;;;;5.20;1.63;;;11.50;99.90;;;;;;5078484;28;20040;-38
2023/08/31 05:32:21;;;;;;;4.30;1.73;;;11.80;99.90;;;;;;5079829;28;20044;-38
2023/08/31 05:34:46;;;;;;;6.82;2.20;;;12.40;99.90;;;;;;5079453;28;20044;-38
2023/08/31 05:37:13;;;;;;;6.38;1.55;;;13.00;99.90;;;;;;5078877;28;20076;-39
2023/08/31 05:39:39;;;;;;;5.72;1.70;;;13.40;99.90;;;;;;5060333;28;20070;-39
2023/08/31 05:42:05;;;;;;;6.75;1.80;;;14.00;99.90;;;;;;5078802;28;20069;-39
2023/08/31 05:44:31;;;;;;;4.07;1.73;;;15.00;99.90;;;;;;5075479;28;20051;-39
2023/08/31 05:46:56;;;;;;;3.25;1.35;;;16.00;99.90;;;;;;5044899;28;20387;-38
2023/08/31 05:49:22;;;;;;;3.58;1.83;;;16.90;99.90;;;;;;5076655;28;20946;-39
2023/08/31 05:51:49;;;;;;;6.78;1.77;;;17.60;99.90;;;;;;5057490;28;20076;-39
2023/08/31 05:54:14;;;;;;;3.40;1.50;;;18.10;99.90;;;;;;5058250;28;20093;-42
2023/08/31 05:56:40;;;;;;;4.20;1.83;;;18.60;99.90;;;;;;5057968;28;20045;-40
2023/08/31 05:59:06;;;;;;;5.47;1.70;;;18.90;99.90;;;;;;5058186;28;20047;-40
2023/08/31 06:01:36;;;;;;;4.28;1.30;;;19.20;99.90;;;;;;5058754;28;20079;-41
2023/08/31 06:04:03;;;;;;;4.93;1.50;;;19.70;99.90;;;;;;5055305;28;20122;-39
2023/08/31 06:06:29;;;;;;;5.60;1.30;;;20.10;99.90;;;;;;5056301;28;20048;-41
2023/08/31 06:08:54;;;;;;;4.20;1.65;;;20.30;99.90;;;;;;5055771;28;20063;-42
2023/08/31 06:11:21;;;;;;;4.13;1.77;;;20.40;99.90;;;;;;5058543;28;20063;-41
2023/08/31 06:13:47;;;;;;;2.45;1.40;;;20.90;99.90;;;;;;5055624;28;20815;-40
2023/08/31 06:16:12;;;;;;;6.07;1.42;;;21.10;99.90;;;;;;5056941;28;20047;-40
2023/08/31 06:18:38;;;;;;;4.05;1.42;;;21.30;99.90;;;;;;5054310;28;20071;-40
2023/08/31 06:21:04;;;;;;;2.45;1.23;;;21.80;99.90;;;;;;5055841;28;20435;-42
2023/08/31 06:23:30;;;;;;;3.50;1.20;;;22.00;99.90;;;;;;5053349;28;20048;-41
2023/08/31 06:25:56;;;;;;;2.63;1.23;;;22.30;99.90;;;;;;5055669;28;20501;-40
2023/08/31 06:28:21;;;;;;;4.43;1.25;;;22.20;99.90;;;;;;5054890;28;20093;-40
2023/08/31 06:30:47;;;;;;;4.32;1.20;;;22.30;99.90;;;;;;5053609;28;20550;-41
2023/08/31 06:33:14;;;;;;;6.28;1.42;;;22.20;99.90;;;;;;5054844;28;20119;-40
2023/08/31 06:35:40;;;;;;;4.63;1.60;;;22.40;99.90;;;;;;5057149;28;20064;-41
2023/08/31 06:38:06;;;;;;;4.32;1.38;;;22.20;99.90;;;;;;5036181;28;20036;-40
2023/08/31 06:40:31;;;;;;;6.40;1.73;;;22.10;99.90;;;;;;5057449;28;20044;-41
2023/08/31 06:42:57;;;;;;;4.25;1.63;;;22.20;99.90;;;;;;5054779;28;20041;-41
2023/08/31 06:45:23;;;;;;;3.25;1.40;;;22.40;99.90;;;;;;5053067;28;20041;-40
2023/08/31 06:47:49;;;;;;;4.45;1.70;;;22.80;99.90;;;;;;5053742;28;20036;-41
2023/08/31 06:50:14;;;;;;;4.25;1.33;;;22.10;99.90;;;;;;5055753;28;20529;-42
2023/08/31 06:52:41;;;;;;;4.95;1.58;;;21.30;99.90;;;;;;5057839;28;20054;-40
2023/08/31 06:55:07;;;;;;;4.47;1.20;;;20.40;99.90;;;;;;5053992;28;20041;-41
2023/08/31 06:57:32;;;;;;;6.07;1.48;;;19.60;99.90;;;;;;5059946;28;20048;-40
2023/08/31 06:59:58;;;;;;;7.60;1.40;;;19.00;99.90;;;;;;5051879;28;20055;-40
2023/08/31 07:02:26;;;;;;;4.68;1.23;;;18.40;99.90;;;;;;5058664;28;20040;-39
2023/08/31 07:04:52;;;;;;;5.60;1.45;;;18.30;99.90;;;;;;5056479;28;20098;-40
2023/08/31 07:07:18;;;;;;;4.00;1.23;;;19.00;99.90;;;;;;5057916;28;20765;-40
2023/08/31 07:09:46;;;;;;;4.75;1.27;;;20.10;99.90;;;;;;5055850;28;20047;-40
2023/08/31 07:12:11;;;;;;;3.05;1.30;;;21.00;99.90;;;;;;5039433;28;20090;-39
2023/08/31 07:14:38;;;;;;;4.43;1.25;;;21.40;99.90;;;;;;5053380;28;20509;-40
2023/08/31 07:17:04;;;;;;;5.82;1.25;;;21.10;99.90;;;;;;5057660;28;20041;-40
2023/08/31 07:19:30;;;;;;;4.90;1.00;;;20.60;99.90;;;;;;5055696;28;20097;-39
2023/08/31 07:21:56;;;;;;;4.32;0.90;;;20.40;99.90;;;;;;5055462;28;20049;-41
2023/08/31 07:24:23;;;;;;;4.25;1.17;;;20.20;99.90;;;;;;5055602;28;20034;-41
2023/08/31 07:26:49;;;;;;;4.53;1.80;;;20.10;99.90;;;;;;5057741;28;20055;-40
2023/08/31 07:29:15;;;;;;;3.88;1.13;;;20.00;99.90;;;;;;5055724;28;20036;-40
2023/08/31 07:31:40;;;;;;;4.90;1.25;;;20.20;99.90;;;;;;5055962;28;20033;-41
2023/08/31 07:34:07;;;;;;;3.25;0.80;;;20.40;99.90;;;;;;5053253;28;20048;-41
2023/08/31 07:36:33;;;;;;;2.53;0.93;;;20.20;99.90;;;;;;5054532;28;20048;-40
2023/08/31 07:38:59;;;;;;;4.50;1.23;;;20.20;99.90;;;;;;5055547;28;20059;-40
2023/08/31 07:41:24;;;;;;;1.95;1.10;;;20.10;99.90;;;;;;5051632;28;20040;-40
2023/08/31 07:43:50;;;;;;;4.05;1.15;;;19.80;99.90;;;;;;5054378;28;20040;-40
2023/08/31 07:46:17;;;;;;;2.15;1.00;;;19.80;99.90;;;;;;5049751;28;20032;-40
2023/08/31 07:48:43;;;;;;;3.35;1.25;;;19.60;99.90;;;;;;5050809;28;20040;-40
2023/08/31 07:51:08;;;;;;;5.22;1.00;;;19.70;99.90;;;;;;5051341;28;20437;-40
2023/08/31 07:53:34;;;;;;;3.72;0.80;;;19.60;99.90;;;;;;5054462;28;20058;-41
2023/08/31 18:56:38;;;;;;;5.65;1.90;;;13.90;99.90;;;;;;5147384;27;20321;-46
2023/08/31 18:59:04;;;;;;;6.40;1.67;;;13.70;99.90;;;;;;5125360;27;20409;-47
2023/08/31 19:01:29;;;;;;;4.00;1.75;;;13.70;99.90;;;;;;5132178;27;20031;-47
2023/08/31 19:03:56;;;;;;;3.00;1.63;;;13.70;99.90;;;;;;5130754;27;20066;-47
2023/08/31 19:06:23;;;;;;;7.07;1.70;;;13.70;99.90;;;;;;5124403;27;20039;-47
2023/08/31 19:08:48;;;;;;;2.97;1.45;;;13.60;99.90;;;;;;5123849;27;20071;-50
2023/08/31 19:11:14;;;;;;;10.45;2.10;;;13.60;99.90;;;;;;5123901;27;20059;-46
2023/08/31 19:13:41;;;;;;;3.55;2.10;;;13.60;99.90;;;;;;5124432;27;20047;-49
2023/08/31 19:16:07;;;;;;;5.03;2.42;;;13.60;99.90;;;;;;5123576;27;20488;-47
2023/08/31 19:18:34;;;;;;;3.45;1.63;;;13.50;99.90;;;;;;5123267;27;20108;-46
2023/08/31 19:21:04;;;;;;;5.00;1.75;;;13.50;99.90;;;;;;5119318;27;20485;-46
2023/08/31 19:23:30;;;;;;;8.10;1.83;;;13.50;99.90;;;;;;5126758;27;20034;-48
2023/08/31 19:26:05;;;;;;;4.45;1.50;;;13.40;99.90;;;;;;5126555;27;20116;-48
2023/08/31 19:28:33;;;;;;;7.32;2.00;;;13.30;99.90;;;;;;5131012;27;20054;-47
2023/08/31 19:30:59;;;;;;;4.75;2.28;;;13.30;99.90;;;;;;5127586;27;20043;-46
2023/08/31 19:33:25;;;;;;;5.47;3.05;;;13.20;99.90;;;;;;5132488;27;20042;-46
2023/08/31 19:35:51;;;;;;;4.97;2.83;;;13.10;99.90;;;;;;5118468;28;20395;-46
2023/08/31 19:38:17;;;;;;;6.10;2.95;;;13.00;99.90;;;;;;5113543;28;20044;-48
2023/08/31 19:40:44;;;;;;;5.03;3.00;;;13.00;99.90;;;;;;5123322;27;20087;-47
2023/08/31 19:43:11;;;;;;;8.23;3.38;;;12.90;99.90;;;;;;5117249;27;20055;-47
2023/08/31 19:45:37;;;;;;;4.90;2.70;;;12.80;99.90;;;;;;5119840;27;20073;-52
2023/08/31 19:48:03;;;;;;;4.63;2.40;;;12.80;99.90;;;;;;5120939;27;20067;-48
2023/08/31 19:50:29;;;;;;;5.22;2.63;;;12.80;99.90;;;;;;5088681;27;20085;-47
2023/08/31 19:52:55;;;;;;;5.55;2.85;;;12.80;99.90;;;;;;5054838;28;20473;-48
2023/08/31 19:55:22;;;;;;;5.75;3.17;;;12.70;99.90;;;;;;5125892;27;20140;-48
2023/08/31 19:57:47;;;;;;;5.28;2.60;;;12.70;99.90;;;;;;5069490;27;20416;-48
2023/08/31 20:00:24;;;;;;;5.30;2.83;;;12.60;99.90;;;;;;5061775;27;20424;-47
2023/08/31 20:02:50;;;;;;;4.95;3.00;;;12.60;99.90;;;;;;5083725;27;20039;-50
2023/08/31 20:05:16;;;;;;;5.55;2.83;;;12.50;99.90;;;;;;5048123;27;20163;-46
2023/08/31 20:07:43;;;;;;;4.03;2.40;;;12.40;99.90;;;;;;5098570;27;20050;-47
2023/08/31 20:10:09;;;;;;;7.18;2.83;;;12.40;99.90;;;;;;5100700;27;20046;-46
2023/08/31 20:12:35;;;;;;;4.47;2.53;;;12.40;99.90;;;;;;5081580;28;20111;-47
2023/08/31 20:15:01;;;;;;;4.45;2.53;;;12.30;99.90;;;;;;5082605;28;20509;-47
2023/08/31 20:17:27;;;;;;;4.68;2.65;;;12.40;99.90;;;;;;5093528;28;20119;-46
2023/08/31 20:19:55;;;;;;;5.85;3.00;;;12.30;99.90;;;;;;5097162;28;20093;-49
2023/08/31 20:22:22;;;;;;;5.75;2.80;;;12.30;99.90;;;;;;5099772;27;20500;-46
2023/08/31 20:24:47;;;;;;;6.93;2.83;;;12.30;99.90;;;;;;5078906;28;20050;-47
2023/08/31 20:27:13;;;;;;;4.60;2.47;;;12.30;99.90;;;;;;5075866;28;20061;-49
2023/08/31 20:29:39;;;;;;;6.43;2.63;;;12.20;99.90;;;;;;5093813;28;20039;-49
2023/08/31 20:32:05;;;;;;;4.32;2.60;;;12.20;99.90;;;;;;5099028;28;20032;-47
2023/08/31 20:34:31;;;;;;;5.10;2.50;;;12.20;99.90;;;;;;5096640;28;20055;-47
2023/08/31 20:37:00;;;;;;;3.80;2.30;;;12.20;99.90;;;;;;5095272;27;20036;-48
2023/08/31 20:39:27;;;;;;;4.82;2.70;;;12.20;99.90;;;;;;5081696;28;20039;-46
2023/08/31 20:41:52;;;;;;;5.60;2.78;;;12.10;99.90;;;;;;5094701;28;20489;-46
2023/08/31 20:44:18;;;;;;;5.95;2.65;;;12.10;99.90;;;;;;5097386;28;20035;-46
2023/08/31 20:46:45;;;;;;;5.75;5.15;;;12.10;99.90;;;;;;5096809;28;20160;-46
2023/08/31 20:49:11;;;;;;;4.82;4.43;;;12.00;99.90;;;;;;5100484;28;20354;-48
2023/08/31 20:51:39;;;;;;;7.13;5.43;;;12.00;99.90;;;;;;5080003;28;20043;-46
2023/08/31 20:54:05;;;;;;;7.45;5.47;;;12.00;99.90;;;;;;5085890;28;20336;-46
2023/08/31 20:56:31;;;;;;;5.97;4.57;;;12.00;99.90;;;;;;5080358;28;20413;-47
2023/08/31 20:58:56;;;;;;;5.18;3.92;;;11.90;99.90;;;;;;5098824;28;20039;-49
2023/08/31 21:01:25;;;;;;;6.60;3.88;;;11.90;99.90;;;;;;5078886;28;20071;-47
2023/08/31 21:03:58;;;;;;;6.80;3.58;;;11.90;99.90;;;;;;5098276;28;20482;-46
2023/08/31 21:06:24;;;;;;;;;;;11.90;99.90;;;;;;5100014;28;20105;-47
2023/08/31 21:08:52;;;;;;;6.13;3.78;;;11.80;99.90;;;;;;5094278;28;19931;-48
2023/08/31 21:11:21;;;;;;;6.22;3.40;;;11.90;99.90;;;;;;5097828;28;20049;-49
2023/08/31 21:13:47;;;;;;;6.65;3.47;;;11.80;99.90;;;;;;5096729;28;20050;-48
2023/08/31 21:16:13;;;;;;;6.15;3.70;;;11.80;99.90;;;;;;5103893;28;20342;-49
2023/08/31 21:18:38;;;;;;;5.57;3.70;;;11.80;99.90;;;;;;5105846;27;20035;-47
2023/08/31 21:21:05;;;;;;;6.57;4.38;;;11.80;99.90;;;;;;5107466;27;20045;-47
2023/08/31 21:23:32;;;;;;;9.35;4.10;;;11.80;99.90;;;;;;5097407;27;20450;-46
2023/08/31 21:26:02;;;;;;;4.00;3.40;;;11.80;99.90;;;;;;5111672;27;20043;-47
2023/08/31 21:28:28;;;;;;;5.13;3.38;;;11.70;99.90;;;;;;5107310;27;20114;-46
2023/08/31 21:30:53;;;;;;;5.82;3.72;;;11.70;99.90;;;;;;5117456;27;20168;-47
2023/08/31 21:33:20;;;;;;;5.65;3.33;;;11.70;99.90;;;;;;5120819;27;20135;-48
2023/08/31 21:35:46;;;;;;;5.38;3.55;;;11.80;99.90;;;;;;5105016;28;20103;-48
2023/08/31 21:38:12;;;;;;;5.85;3.40;;;11.80;99.90;;;;;;5103136;28;20088;-48
2023/08/31 21:40:43;;;;;;;6.45;4.35;;;11.80;99.90;;;;;;5101409;28;20434;-47
2023/08/31 21:43:09;;;;;;;5.32;3.85;;;11.80;99.90;;;;;;5077012;28;20043;-49
2023/08/31 21:45:36;;;;;;;6.43;3.83;;;11.80;99.90;;;;;;5100267;28;20039;-46
2023/08/31 21:48:03;;;;;;;6.65;3.60;;;11.90;99.90;;;;;;5077555;28;20047;-47
2023/08/31 21:50:29;;;;;;;5.15;3.53;;;11.90;99.90;;;;;;5104668;28;20044;-48
2023/08/31 21:52:56;;;;;;;5.20;3.30;;;11.90;99.90;;;;;;5105659;28;20252;-46
2023/08/31 21:55:21;;;;;;;6.22;3.42;;;11.90;99.90;;;;;;5101442;27;20052;-49
2023/08/31 21:57:50;;;;;;;4.72;3.20;;;11.90;99.90;;;;;;5096182;28;20112;-46
2023/08/31 22:00:16;;;;;;;9.50;3.58;;;11.90;99.90;;;;;;5104820;27;20039;-51
2023/08/31 22:02:42;;;;;;;6.40;3.35;;;11.90;99.90;;;;;;5105939;27;20066;-47
2023/08/31 22:05:15;;;;;;;7.45;3.53;;;11.90;99.90;;;;;;5088111;28;20116;-47
2023/08/31 22:07:41;;;;;;;;;;;11.90;99.90;;;;;;5104656;28;20044;-46
2023/08/31 22:10:07;;;;;;;7.15;3.72;;;11.80;99.90;;;;;;5105190;28;19970;-49
2023/08/31 22:12:37;;;;;;;6.57;3.75;;;11.80;99.90;;;;;;5096344;28;20035;-48
2023/08/31 22:15:14;;;;;;;6.35;4.07;;;11.80;99.90;;;;;;5104558;28;20288;-48
2023/08/31 22:17:42;;;;;;;6.90;5.32;;;11.80;99.90;;;;;;5103902;28;20058;-50
2023/08/31 22:20:08;;;;;;;8.10;4.25;;;11.80;99.90;;;;;;5085879;28;20087;-48
2023/08/31 22:22:34;;;;;;;7.55;4.00;;;11.80;99.90;;;;;;5104569;28;20067;-46
2023/08/31 22:25:00;;;;;;;7.03;4.30;;;11.80;99.90;;;;;;5114616;27;20088;-46
2023/08/31 22:27:26;;;;;;;7.60;4.15;;;11.80;99.90;;;;;;5103767;28;20150;-48
2023/08/31 22:29:51;;;;;;;9.23;4.90;;;11.70;99.90;;;;;;5084731;28;20126;-45
2023/08/31 22:32:17;;;;;;;5.47;4.93;;;11.70;99.90;;;;;;5094318;28;20180;-49
2023/08/31 22:34:43;;;;;;;10.27;5.38;;;11.70;99.90;;;;;;5107597;27;20085;-47
2023/08/31 22:37:11;;;;;;;7.63;5.38;;;11.70;99.90;;;;;;5103090;28;20387;-47
2023/08/31 22:39:36;;;;;;;8.45;5.50;;;11.80;99.90;;;;;;5104123;28;20038;-49
2023/08/31 22:42:03;;;;;;;8.23;5.82;;;11.80;99.90;;;;;;5101961;28;20044;-46
2023/08/31 22:44:29;;;;;;;9.48;6.32;;;11.80;99.90;;;;;;5093031;28;20054;-47
2023/08/31 22:46:55;;;;;;;8.40;6.00;;;11.80;99.90;;;;;;5092030;28;20117;-46
2023/08/31 22:49:20;;;;;;;9.68;6.35;;;11.80;99.90;;;;;;5104375;28;20042;-50
2023/08/31 22:51:46;;;;;;;7.28;6.05;;;11.80;99.90;;;;;;5089946;28;20568;-48
2023/08/31 22:54:12;;;;;;;8.15;5.75;;;11.80;99.90;;;;;;5104177;28;20079;-50
2023/08/31 22:56:37;;;;;;;10.30;6.60;;;11.80;99.90;;;;;;5103929;28;20551;-47
2023/08/31 22:59:03;;;;;;;7.45;6.20;;;11.80;99.90;;;;;;5103582;28;20038;-47
2023/08/31 23:01:29;;;;;;;10.80;6.45;;;11.80;99.90;;;;;;5104054;28;20114;-51
2023/08/31 23:03:54;;;;;;;8.18;6.07;;;11.80;99.90;;;;;;5104290;28;20046;-47
2023/08/31 23:06:20;;;;;;;9.13;6.28;;;11.80;99.90;;;;;;5105845;28;20047;-50
2023/08/31 23:08:47;;;;;;;9.05;6.53;;;11.80;99.90;;;;;;5084832;28;20101;-48
2023/08/31 23:11:13;;;;;;;7.65;6.57;;;11.90;99.90;;;;;;5103718;28;20047;-46
2023/08/31 23:13:39;;;;;;;10.48;7.68;;;11.90;99.90;;;;;;5103945;28;20084;-48
2023/08/31 23:16:06;;;;;;;11.55;7.18;;;11.90;99.90;;;;;;5102588;28;20512;-47
2023/08/31 23:18:32;;;;;;;9.10;7.00;;;11.90;99.90;;;;;;5103231;28;20462;-50
2023/08/31 23:21:10;;;;;;;7.50;6.72;;;11.80;99.90;;;;;;5115119;28;20160;-48
2023/08/31 23:23:36;;;;;;;10.40;7.63;;;11.90;99.90;;;;;;5104155;28;20039;-48
2023/08/31 23:26:02;;;;;;;12.02;7.55;;;11.90;99.90;;;;;;5089523;28;20074;-49
2023/08/31 23:28:28;;;;;;;9.32;6.70;;;11.90;99.90;;;;;;5103375;28;20093;-47
2023/08/31 23:30:54;;;;;;;9.57;7.57;;;12.00;99.90;;;;;;5103699;28;20150;-48
2023/08/31 23:33:20;;;;;;;9.25;8.27;;;12.00;99.90;;;;;;5103902;28;20569;-47
2023/08/31 23:35:46;;;;;;;11.73;7.75;;;12.00;99.90;;;;;;5104046;28;20135;-49
2023/08/31 23:38:13;;;;;;;7.95;7.15;;;12.00;99.90;;;;;;5092656;28;20039;-47
2023/08/31 23:40:39;;;;;;;11.80;7.40;;;12.00;99.90;;;;;;5103313;28;20105;-49
2023/08/31 23:43:05;;;;;;;8.02;7.22;;;12.00;99.90;;;;;;5085863;28;20105;-46
2023/08/31 23:45:31;;;;;;;12.13;7.90;;;11.90;99.90;;;;;;5102928;28;20222;-49